Domov               UVHVVR             MKGP            O straneh              
ZDRAVSTVENO VARSTVO RASTLIN
  MREŽA AGROMET. POSTAJ
 ► PROGNOSTIČNA OBVESTILA
AGROMETEOROLOŠKI PODATKI -
ARSO
OBVLADOVANJE TVEGANJ ZARADI
NEUGODNIH VREMENSKIH RAZMER
  ► NARAVNE NESREČE
  ► SUŠA/MOČA
  ► NAMAKANJE
  ► ŽLED (gozdarstvo)
KARTOGRAFSKI PRIKAZI
SPLETNE POVEZAVE
PROJEKTI IN PUBLIKACIJE

AGROMETEOROLOŠKA MREŽA: VREMENSKE POSTAJE IN FENOLOŠKA OPAZOVANJA

Pregled podatkov za lokacijo Selo, meteorološka postaja 37838

Pregled senzorjev na lokaciji

ID Ime Zadnja
vrednost
Datum
zadnje
spremembe
Tip
senzorja
4044 Omočenost lista (U) 5 U 17.10.2017 23:30 A730WET
4045 Padavine 0.2 mm (mm) 0 mm 17.10.2017 23:30 Rain-O-Matic
4046 Temperatura 2 m ( °C) 13,55 °C 17.10.2017 23:30 50YA
4047 Relativna vlaga 2 m (% RH) 85,79 % RH 17.10.2017 23:30 50YA

Pregled podatkov zadnjih 24 ur

Zap.
št.
Datum in čas Selo
Omočenost
lista
Padavine
0.2
mm
Relativna
vlaga
2
m
Temperatura
2
m
0 17.10.2017 22:30 5 0 85,34 13,64
1 17.10.2017 22:00 4 0 83,71 14,1
2 17.10.2017 21:30 4 0 82,99 14,36
3 17.10.2017 21:00 5,5 0 80,73 14,9
4 17.10.2017 20:30 5,5 0 79,87 15,21
5 17.10.2017 20:00 2,5 0 78,62 15,56
6 17.10.2017 19:30 1 0 76,86 16
7 17.10.2017 19:00 1 0 74,51 16,56
8 17.10.2017 18:30 1 0 73,31 16,87
9 17.10.2017 18:00 1 0 71,86 17,18
10 17.10.2017 17:30 0 0 69,02 17,77
11 17.10.2017 17:00 0 0 65,15 18,61
12 17.10.2017 16:30 0 0 62,93 19,41
13 17.10.2017 16:00 0 0 60,31 20,05
14 17.10.2017 15:30 0 0 54,14 20,92
15 17.10.2017 15:00 0 0 50,93 21,43
16 17.10.2017 14:30 0 0 47,79 21,75
17 17.10.2017 14:00 0 0 48,72 21,49
18 17.10.2017 13:30 0 0 51,37 21,39
19 17.10.2017 13:00 0 0 50,62 21,47
20 17.10.2017 12:30 0 0 54,13 20,7
21 17.10.2017 12:00 0 0 58,05 19,84
22 17.10.2017 11:30 0 0 62,74 18,95
23 17.10.2017 11:00 0 0 65,74 18,18
24 17.10.2017 10:30 0 0 69,46 17,84
25 17.10.2017 10:00 0 0 71,21 17,23
26 17.10.2017 09:30 0 0 76,28 15,93
27 17.10.2017 09:00 1 0 76,21 15,8
28 17.10.2017 08:30 10 0 79,49 15,07
29 17.10.2017 08:00 10 0 80,61 13,92
30 17.10.2017 07:30 10 0 84,47 13,11
31 17.10.2017 07:00 10 0 99,93 10,72
32 17.10.2017 06:30 10 0 99,93 10,06
33 17.10.2017 06:00 10 0 99,93 10,45
34 17.10.2017 05:30 10 0 99,93 10,4
35 17.10.2017 05:00 9 0 99,76 10,55
36 17.10.2017 04:30 6 0 96,51 10,45
37 17.10.2017 04:00 4 0 90,87 10,99
38 17.10.2017 03:30 3 0 86,01 11,97
39 17.10.2017 03:00 2 0 79,85 12,94
40 17.10.2017 02:30 3 0 78,68 12,87
41 17.10.2017 02:00 1 0 77,53 13,09
42 17.10.2017 01:30 1 0 75,9 13,33
43 17.10.2017 01:00 0 0 76,07 13,26
44 17.10.2017 00:30 0 0 72,82 13,8
© 2011 Ministrstvo za kmetijstvo, gozdarstvo in prehrano. Vse pravice pridržane.